Mr. Mag — WDE7813 — position and weather

sailwx.info

Track history (hours):
 
Tides and Currents Weather Stations Pressure Air Temp Water Temp Dewpoint Dewpoint Depression Visibility Wind Speed Wind Dir Waves Ship Positions

Mr. Mag

Owner: Tandi Marine, Inc., Larose, LA. More information available from US FCC via Universal Licensing System and Coast Guard Vessel Documentation Center.

Last reported at 2017-Sep-20 22:33 UTC. Time now 2017-Dec-15 04:35 UTC.
Position N 29°36' W 092°17'.
Warning: this ship's position is months out of date.

Length 46 m; draft 2.5 m.

Type: Passenger vessel. MMSI: 367397990.

Date/timePositionNaut miles runAvg speedWind from/ knotsBaromVisibWave heightAir tempDewpointWater temp
2017-Sep-20 22:33N 29°36' W 092°17'119.3
2017-Sep-20 22:30N 29°37' W 092°17'815.5
2017-Sep-20 22:00N 29°44' W 092°14'3 6.6
2017-Sep-20 21:30N 29°47' W 092°11'0 0.0
2017-Sep-20 21:00N 29°47' W 092°11'4 8.5
2017-Sep-20 20:31N 29°44' W 092°15'7 0.6
2017-Sep-20 07:25N 29°37' W 092°17'512.1
2017-Sep-20 07:00N 29°41' W 092°15'611.5
2017-Sep-20 06:30N 29°46' W 092°11'1 1.6
2017-Sep-20 06:00N 29°47' W 092°11'0 0.0
2017-Sep-20 05:30N 29°47' W 092°11'0 0.0
2017-Sep-20 05:01N 29°47' W 092°11'0 0.0
2017-Sep-20 04:30N 29°47' W 092°11'0 0.0
2017-Sep-20 04:00N 29°47' W 092°11'0 0.0
2017-Sep-20 03:30N 29°47' W 092°11'0 0.0
2017-Sep-20 03:00N 29°47' W 092°11'0 0.0
2017-Sep-20 02:31N 29°47' W 092°11'0 0.0
2017-Sep-20 02:01N 29°47' W 092°11'0 0.0
2017-Sep-20 01:31N 29°47' W 092°11'0 0.0
2017-Sep-20 01:00N 29°47' W 092°11'0 0.0
2017-Sep-20 00:30N 29°47' W 092°11'0 0.0
2017-Sep-20 00:00N 29°47' W 092°11'1 1.6
2017-Sep-19 23:30N 29°46' W 092°10'815.7
2017-Sep-19 23:00N 29°40' W 092°15'5710.2
2017-Sep-19 17:26N 29°48' W 093°20'1 0.1
2017-Sep-19 00:59N 29°47' W 093°21'2 2.4
2017-Sep-19 00:02N 29°49' W 093°20'1 3.1
2017-Sep-18 23:37N 29°48' W 093°21'0 0.0
2017-Sep-18 23:29N 29°48' W 093°21'0 0.0
2017-Sep-18 22:53N 29°48' W 093°21'0 0.0
2017-Sep-18 22:27N 29°48' W 093°21'0 0.0
2017-Sep-18 21:57N 29°48' W 093°21'0 0.0
2017-Sep-18 21:22N 29°48' W 093°21'0 0.0
2017-Sep-18 20:55N 29°48' W 093°21'0 0.0
2017-Sep-18 20:28N 29°48' W 093°21'0 0.0
2017-Sep-18 20:00N 29°48' W 093°21'0 0.0
2017-Sep-18 19:28N 29°48' W 093°21'0 0.0
2017-Sep-18 19:00N 29°48' W 093°21'0 0.0
2017-Sep-18 18:30N 29°48' W 093°21'0 0.0
2017-Sep-18 18:00N 29°48' W 093°21'0 0.0
2017-Sep-18 17:29N 29°48' W 093°21'0 0.0
2017-Sep-18 16:59N 29°48' W 093°21'0 0.0
2017-Sep-18 16:30N 29°48' W 093°21'0 0.0
2017-Sep-18 15:59N 29°48' W 093°21'0 0.0
2017-Sep-18 15:29N 29°48' W 093°21'1 1.4
2017-Sep-18 14:55N 29°49' W 093°21'0 0.0
2017-Sep-18 11:12N 29°49' W 093°21'0 0.0
2017-Sep-18 10:44N 29°49' W 093°21'0 0.0
2017-Sep-18 06:28N 29°49' W 093°21'0 0.0
2017-Sep-18 05:58N 29°49' W 093°21'0 0.0
2017-Sep-18 02:30N 29°49' W 093°21'0 0.0
2017-Sep-18 01:47N 29°49' W 093°21'0 0.1
2017-Sep-18 01:30N 29°49' W 093°21'0 0.0
2017-Sep-18 01:00N 29°49' W 093°21'0 0.0
2017-Sep-18 00:30N 29°49' W 093°21'0 0.0
2017-Sep-17 23:59N 29°49' W 093°21'1 0.8
2017-Sep-17 23:20N 29°49' W 093°20'0 0.1
2017-Sep-17 22:45N 29°49' W 093°20'2 0.6
2017-Sep-17 20:02N 29°48' W 093°21'0 7.1
2017-Sep-17 20:00N 29°48' W 093°21'2 0.1
2017-Sep-16 16:55N 29°46' W 093°21'2 0.9
2017-Sep-16 15:01N 29°48' W 093°20'1 2.0
2017-Sep-16 14:18N 29°47' W 093°21'3 7.8
2017-Sep-16 13:59N 29°49' W 093°20'0 0.0
2017-Sep-16 13:23N 29°49' W 093°20'0 0.0
2017-Sep-16 13:00N 29°49' W 093°20'0 0.0
2017-Sep-16 12:30N 29°49' W 093°20'2 0.1
2017-Sep-15 14:30N 29°48' W 093°21'2 3.4
2017-Sep-15 14:00N 29°49' W 093°20'0 0.0
2017-Sep-15 13:20N 29°49' W 093°20'0 0.0
2017-Sep-15 13:00N 29°49' W 093°20'1 0.1
2017-Sep-14 20:42N 29°48' W 093°21'1 5.5
2017-Sep-14 20:28N 29°49' W 093°20'0 0.0
2017-Sep-14 20:00N 29°49' W 093°20'2 0.3
2017-Sep-14 12:49N 29°48' W 093°21'2 5.3
2017-Sep-14 12:28N 29°49' W 093°20'1 1.4
2017-Sep-14 12:00N 29°49' W 093°21'0 0.0
2017-Sep-14 11:30N 29°49' W 093°21'0 0.0
2017-Sep-14 11:00N 29°49' W 093°21'0 0.0
2017-Sep-14 10:30N 29°49' W 093°21'0 0.0
2017-Sep-14 10:00N 29°49' W 093°21'0 0.0
2017-Sep-14 09:29N 29°49' W 093°21'0 0.0
2017-Sep-14 09:00N 29°49' W 093°21'0 0.0
2017-Sep-14 08:30N 29°49' W 093°21'0 0.0
2017-Sep-14 08:00N 29°49' W 093°21'3 0.1
2017-Sep-13 05:21N 29°46' W 093°21'3 7.1
2017-Sep-13 05:00N 29°49' W 093°21'0 0.1
2017-Sep-13 04:30N 29°49' W 093°21'0 0.0
2017-Sep-13 04:00N 29°49' W 093°21'0 0.0
2017-Sep-13 03:30N 29°49' W 093°21'0 0.0
2017-Sep-13 03:00N 29°49' W 093°21'0 0.0
2017-Sep-13 02:28N 29°49' W 093°21'0 0.0
2017-Sep-13 02:00N 29°49' W 093°21'0 0.0
2017-Sep-13 01:30N 29°49' W 093°21'0 0.0
2017-Sep-13 01:00N 29°49' W 093°21'0 0.0
2017-Sep-13 00:30N 29°49' W 093°21'1 1.2
2017-Sep-13 00:00N 29°49' W 093°20'1 0.3
2017-Sep-12 22:12N 29°49' W 093°21'0 0.1
2017-Sep-12 16:34N 29°49' W 093°21'0 0.6
2017-Sep-12 16:30N 29°49' W 093°21'0 0.1
2017-Sep-12 14:15N 29°49' W 093°20'1 0.1
2017-Sep-12 06:19N 29°49' W 093°21'0 0.0
2017-Sep-12 06:00N 29°49' W 093°21'0 0.0
2017-Sep-12 05:29N 29°49' W 093°21'0 0.0
2017-Sep-12 05:00N 29°49' W 093°21'0 0.0
2017-Sep-12 04:30N 29°49' W 093°21'0 0.0
2017-Sep-12 04:00N 29°49' W 093°21'0 0.0
2017-Sep-12 03:30N 29°49' W 093°21'0 0.0
2017-Sep-12 03:00N 29°49' W 093°21'0 0.0
2017-Sep-12 02:30N 29°49' W 093°21'0 0.0
2017-Sep-12 02:00N 29°49' W 093°21'0 0.0
2017-Sep-12 01:30N 29°49' W 093°21'0 0.0
2017-Sep-12 01:00N 29°49' W 093°21'0 0.0
2017-Sep-12 00:30N 29°49' W 093°21'  
Track history (hours):
 
Tides and Currents Weather Stations Pressure Air Temp Water Temp Dewpoint Dewpoint Depression Visibility Wind Speed Wind Dir Waves Ship Positions

Mr. Mag

Owner: Tandi Marine, Inc., Larose, LA. More information available from US FCC via Universal Licensing System and Coast Guard Vessel Documentation Center.

Last reported at 2017-Sep-20 22:33 UTC. Time now 2017-Dec-15 04:35 UTC.
Position N 29°36' W 092°17'.
Warning: this ship's position is months out of date.

Length 46 m; draft 2.5 m.

Type: Passenger vessel. MMSI: 367397990.

Date/timePositionNaut miles runAvg speedWind from/ knotsBaromVisibWave heightAir tempDewpointWater temp
2017-Sep-20 22:33N 29°36' W 092°17'119.3
2017-Sep-20 22:30N 29°37' W 092°17'815.5
2017-Sep-20 22:00N 29°44' W 092°14'3 6.6
2017-Sep-20 21:30N 29°47' W 092°11'0 0.0
2017-Sep-20 21:00N 29°47' W 092°11'4 8.5
2017-Sep-20 20:31N 29°44' W 092°15'7 0.6
2017-Sep-20 07:25N 29°37' W 092°17'512.1
2017-Sep-20 07:00N 29°41' W 092°15'611.5
2017-Sep-20 06:30N 29°46' W 092°11'1 1.6
2017-Sep-20 06:00N 29°47' W 092°11'0 0.0
2017-Sep-20 05:30N 29°47' W 092°11'0 0.0
2017-Sep-20 05:01N 29°47' W 092°11'0 0.0
2017-Sep-20 04:30N 29°47' W 092°11'0 0.0
2017-Sep-20 04:00N 29°47' W 092°11'0 0.0
2017-Sep-20 03:30N 29°47' W 092°11'0 0.0
2017-Sep-20 03:00N 29°47' W 092°11'0 0.0
2017-Sep-20 02:31N 29°47' W 092°11'0 0.0
2017-Sep-20 02:01N 29°47' W 092°11'0 0.0
2017-Sep-20 01:31N 29°47' W 092°11'0 0.0
2017-Sep-20 01:00N 29°47' W 092°11'0 0.0
2017-Sep-20 00:30N 29°47' W 092°11'0 0.0
2017-Sep-20 00:00N 29°47' W 092°11'1 1.6
2017-Sep-19 23:30N 29°46' W 092°10'815.7
2017-Sep-19 23:00N 29°40' W 092°15'5710.2
2017-Sep-19 17:26N 29°48' W 093°20'1 0.1
2017-Sep-19 00:59N 29°47' W 093°21'2 2.4
2017-Sep-19 00:02N 29°49' W 093°20'1 3.1
2017-Sep-18 23:37N 29°48' W 093°21'0 0.0
2017-Sep-18 23:29N 29°48' W 093°21'0 0.0
2017-Sep-18 22:53N 29°48' W 093°21'0 0.0
2017-Sep-18 22:27N 29°48' W 093°21'0 0.0
2017-Sep-18 21:57N 29°48' W 093°21'0 0.0
2017-Sep-18 21:22N 29°48' W 093°21'0 0.0
2017-Sep-18 20:55N 29°48' W 093°21'0 0.0
2017-Sep-18 20:28N 29°48' W 093°21'0 0.0
2017-Sep-18 20:00N 29°48' W 093°21'0 0.0
2017-Sep-18 19:28N 29°48' W 093°21'0 0.0
2017-Sep-18 19:00N 29°48' W 093°21'0 0.0
2017-Sep-18 18:30N 29°48' W 093°21'0 0.0
2017-Sep-18 18:00N 29°48' W 093°21'0 0.0
2017-Sep-18 17:29N 29°48' W 093°21'0 0.0
2017-Sep-18 16:59N 29°48' W 093°21'0 0.0
2017-Sep-18 16:30N 29°48' W 093°21'0 0.0
2017-Sep-18 15:59N 29°48' W 093°21'0 0.0
2017-Sep-18 15:29N 29°48' W 093°21'1 1.4
2017-Sep-18 14:55N 29°49' W 093°21'0 0.0
2017-Sep-18 11:12N 29°49' W 093°21'0 0.0
2017-Sep-18 10:44N 29°49' W 093°21'0 0.0
2017-Sep-18 06:28N 29°49' W 093°21'0 0.0
2017-Sep-18 05:58N 29°49' W 093°21'0 0.0
2017-Sep-18 02:30N 29°49' W 093°21'0 0.0
2017-Sep-18 01:47N 29°49' W 093°21'0 0.1
2017-Sep-18 01:30N 29°49' W 093°21'0 0.0
2017-Sep-18 01:00N 29°49' W 093°21'0 0.0
2017-Sep-18 00:30N 29°49' W 093°21'0 0.0
2017-Sep-17 23:59N 29°49' W 093°21'1 0.8
2017-Sep-17 23:20N 29°49' W 093°20'0 0.1
2017-Sep-17 22:45N 29°49' W 093°20'2 0.6
2017-Sep-17 20:02N 29°48' W 093°21'0 7.1
2017-Sep-17 20:00N 29°48' W 093°21'2 0.1
2017-Sep-16 16:55N 29°46' W 093°21'2 0.9
2017-Sep-16 15:01N 29°48' W 093°20'1 2.0
2017-Sep-16 14:18N 29°47' W 093°21'3 7.8
2017-Sep-16 13:59N 29°49' W 093°20'0 0.0
2017-Sep-16 13:23N 29°49' W 093°20'0 0.0
2017-Sep-16 13:00N 29°49' W 093°20'0 0.0
2017-Sep-16 12:30N 29°49' W 093°20'2 0.1
2017-Sep-15 14:30N 29°48' W 093°21'2 3.4
2017-Sep-15 14:00N 29°49' W 093°20'0 0.0
2017-Sep-15 13:20N 29°49' W 093°20'0 0.0
2017-Sep-15 13:00N 29°49' W 093°20'1 0.1
2017-Sep-14 20:42N 29°48' W 093°21'1 5.5
2017-Sep-14 20:28N 29°49' W 093°20'0 0.0
2017-Sep-14 20:00N 29°49' W 093°20'2 0.3
2017-Sep-14 12:49N 29°48' W 093°21'2 5.3
2017-Sep-14 12:28N 29°49' W 093°20'1 1.4
2017-Sep-14 12:00N 29°49' W 093°21'0 0.0
2017-Sep-14 11:30N 29°49' W 093°21'0 0.0
2017-Sep-14 11:00N 29°49' W 093°21'0 0.0
2017-Sep-14 10:30N 29°49' W 093°21'0 0.0
2017-Sep-14 10:00N 29°49' W 093°21'0 0.0
2017-Sep-14 09:29N 29°49' W 093°21'0 0.0
2017-Sep-14 09:00N 29°49' W 093°21'0 0.0
2017-Sep-14 08:30N 29°49' W 093°21'0 0.0
2017-Sep-14 08:00N 29°49' W 093°21'3 0.1
2017-Sep-13 05:21N 29°46' W 093°21'3 7.1
2017-Sep-13 05:00N 29°49' W 093°21'0 0.1
2017-Sep-13 04:30N 29°49' W 093°21'0 0.0
2017-Sep-13 04:00N 29°49' W 093°21'0 0.0
2017-Sep-13 03:30N 29°49' W 093°21'0 0.0
2017-Sep-13 03:00N 29°49' W 093°21'0 0.0
2017-Sep-13 02:28N 29°49' W 093°21'0 0.0
2017-Sep-13 02:00N 29°49' W 093°21'0 0.0
2017-Sep-13 01:30N 29°49' W 093°21'0 0.0
2017-Sep-13 01:00N 29°49' W 093°21'0 0.0
2017-Sep-13 00:30N 29°49' W 093°21'1 1.2
2017-Sep-13 00:00N 29°49' W 093°20'1 0.3
2017-Sep-12 22:12N 29°49' W 093°21'0 0.1
2017-Sep-12 16:34N 29°49' W 093°21'0 0.6
2017-Sep-12 16:30N 29°49' W 093°21'0 0.1
2017-Sep-12 14:15N 29°49' W 093°20'1 0.1
2017-Sep-12 06:19N 29°49' W 093°21'0 0.0
2017-Sep-12 06:00N 29°49' W 093°21'0 0.0
2017-Sep-12 05:29N 29°49' W 093°21'0 0.0
2017-Sep-12 05:00N 29°49' W 093°21'0 0.0
2017-Sep-12 04:30N 29°49' W 093°21'0 0.0
2017-Sep-12 04:00N 29°49' W 093°21'0 0.0
2017-Sep-12 03:30N 29°49' W 093°21'0 0.0
2017-Sep-12 03:00N 29°49' W 093°21'0 0.0
2017-Sep-12 02:30N 29°49' W 093°21'0 0.0
2017-Sep-12 02:00N 29°49' W 093°21'0 0.0
2017-Sep-12 01:30N 29°49' W 093°21'0 0.0
2017-Sep-12 01:00N 29°49' W 093°21'0 0.0
2017-Sep-12 00:30N 29°49' W 093°21'  

Dump ship's entire track history